createdAt,value
2017-10-23T00:00:15.200Z,3.80
2017-10-23T00:01:22.155Z,3.50
2017-10-23T00:02:29.107Z,3.60
2017-10-23T00:03:36.040Z,3.60
2017-10-23T00:04:43.305Z,3.70
2017-10-23T00:05:50.326Z,4.10
2017-10-23T00:06:57.408Z,3.80
2017-10-23T00:08:04.559Z,3.30
2017-10-23T00:09:11.485Z,3.80
2017-10-23T00:10:18.313Z,3.50
2017-10-23T00:11:25.162Z,3.90
2017-10-23T00:12:32.015Z,3.80
2017-10-23T00:13:39.381Z,3.50
2017-10-23T00:14:45.879Z,3.70
2017-10-23T00:15:52.922Z,3.60
2017-10-23T00:16:59.805Z,3.30
2017-10-23T00:18:06.735Z,4.50
2017-10-23T00:19:13.679Z,3.50
2017-10-23T00:20:20.574Z,3.40
2017-10-23T00:21:27.438Z,3.80
2017-10-23T00:22:34.358Z,3.80
2017-10-23T00:23:41.363Z,3.30
2017-10-23T00:24:48.346Z,3.90
2017-10-23T00:25:55.419Z,3.80
2017-10-23T00:27:02.425Z,3.20
2017-10-23T00:28:09.392Z,3.30
2017-10-23T00:29:16.438Z,3.40
2017-10-23T00:30:23.230Z,3.70
2017-10-23T00:31:30.155Z,3.90
2017-10-23T00:32:37.124Z,3.70
2017-10-23T00:33:43.787Z,3.50
2017-10-23T00:34:50.795Z,4.00
2017-10-23T00:35:57.562Z,4.30
2017-10-23T00:37:04.936Z,3.40
2017-10-23T00:38:11.710Z,4.20
2017-10-23T00:39:18.645Z,3.60
2017-10-23T00:40:25.339Z,4.00
2017-10-23T00:41:32.070Z,3.50
2017-10-23T00:42:39.252Z,3.90
2017-10-23T00:43:46.308Z,5.20
2017-10-23T00:44:52.931Z,3.70
2017-10-23T00:45:59.879Z,4.00
2017-10-23T00:47:06.811Z,3.40
2017-10-23T00:48:13.791Z,3.80
2017-10-23T00:49:20.711Z,3.70
2017-10-23T00:50:27.858Z,3.80
2017-10-23T00:51:34.757Z,3.30
2017-10-23T00:52:41.653Z,3.80
2017-10-23T00:53:48.503Z,4.40
2017-10-23T00:54:55.426Z,3.70
2017-10-23T00:56:02.438Z,3.50
2017-10-23T00:57:09.434Z,3.70
2017-10-23T00:58:16.374Z,3.90
2017-10-23T00:59:23.574Z,3.70
2017-10-23T01:00:30.518Z,3.70
2017-10-23T01:01:37.459Z,3.90
2017-10-23T01:02:44.414Z,3.80
2017-10-23T01:03:51.358Z,3.50
2017-10-23T01:04:58.327Z,3.20
2017-10-23T01:06:05.291Z,4.20
2017-10-23T01:07:12.182Z,3.70
2017-10-23T01:08:19.038Z,3.90
2017-10-23T01:09:25.959Z,3.50
2017-10-23T01:10:32.871Z,3.50
2017-10-23T01:11:39.939Z,4.20
2017-10-23T01:12:46.848Z,3.60
2017-10-23T01:13:53.819Z,3.40
2017-10-23T01:15:00.742Z,4.00
2017-10-23T01:16:07.681Z,4.20
2017-10-23T01:17:14.730Z,4.00
2017-10-23T01:18:21.618Z,3.50
2017-10-23T01:19:28.455Z,3.80
2017-10-23T01:20:35.394Z,3.30
2017-10-23T01:21:42.512Z,3.70
2017-10-23T01:22:49.575Z,3.80
2017-10-23T01:23:56.262Z,3.60
2017-10-23T01:25:03.345Z,3.80
2017-10-23T01:26:10.274Z,4.00
2017-10-23T01:27:17.536Z,4.00
2017-10-23T01:28:24.210Z,3.80
2017-10-23T01:29:31.309Z,3.90
2017-10-23T01:30:38.410Z,3.30
2017-10-23T01:31:45.323Z,3.60
2017-10-23T01:32:52.224Z,3.60
2017-10-23T01:33:59.106Z,3.70
2017-10-23T01:35:06.068Z,3.40
2017-10-23T01:36:13.186Z,3.40
2017-10-23T01:37:20.026Z,3.70
2017-10-23T01:38:26.502Z,3.90
2017-10-23T01:39:33.465Z,4.30
2017-10-23T01:40:40.570Z,3.90
2017-10-23T01:41:47.645Z,3.60
2017-10-23T01:42:54.676Z,3.70
2017-10-23T01:44:01.530Z,3.80
2017-10-23T01:45:08.486Z,4.30
2017-10-23T01:46:15.342Z,3.90
2017-10-23T01:47:22.180Z,4.20
2017-10-23T01:48:29.114Z,4.10
2017-10-23T01:49:35.994Z,3.70
2017-10-23T01:50:42.891Z,3.90
2017-10-23T01:51:49.782Z,4.00
2017-10-23T01:52:56.765Z,4.00
2017-10-23T01:54:03.681Z,3.90
2017-10-23T01:55:10.602Z,4.00
2017-10-23T01:56:17.489Z,3.60
2017-10-23T01:57:24.457Z,4.30
2017-10-23T01:58:31.438Z,3.90
2017-10-23T01:59:38.315Z,4.10
2017-10-23T02:00:45.191Z,3.70
2017-10-23T02:01:52.207Z,4.30
2017-10-23T02:02:59.094Z,3.90
2017-10-23T02:04:06.014Z,4.20
2017-10-23T02:05:12.919Z,3.80
2017-10-23T02:06:19.794Z,4.10
2017-10-23T02:07:26.682Z,4.00
2017-10-23T02:08:33.606Z,4.10
2017-10-23T02:09:40.378Z,4.20
2017-10-23T02:10:47.219Z,4.00
2017-10-23T02:11:54.120Z,3.80
2017-10-23T02:13:00.991Z,3.60
2017-10-23T02:14:07.957Z,3.60
2017-10-23T02:15:14.795Z,3.90
2017-10-23T02:16:21.686Z,4.20
2017-10-23T02:17:28.628Z,4.10
2017-10-23T02:18:35.622Z,3.90
2017-10-23T02:19:42.554Z,3.50
2017-10-23T02:20:49.539Z,3.60
2017-10-23T02:21:56.461Z,3.80
2017-10-23T02:23:03.413Z,4.10
2017-10-23T02:24:10.286Z,3.80
2017-10-23T02:25:17.144Z,3.90
2017-10-23T02:26:24.007Z,3.60
2017-10-23T02:27:30.890Z,3.60
2017-10-23T02:28:37.789Z,3.80
2017-10-23T02:29:44.579Z,3.70
2017-10-23T02:30:51.761Z,4.30
2017-10-23T02:31:58.201Z,3.80
2017-10-23T02:33:05.064Z,4.30
2017-10-23T02:34:12.130Z,3.60
2017-10-23T02:35:19.149Z,4.10
2017-10-23T02:36:26.094Z,3.90
2017-10-23T02:37:33.176Z,3.70
2017-10-23T02:38:39.837Z,4.00
2017-10-23T02:39:46.836Z,4.10
2017-10-23T02:40:53.790Z,3.70
2017-10-23T02:42:00.676Z,4.30
2017-10-23T02:43:07.588Z,4.00
2017-10-23T02:44:14.543Z,3.70
2017-10-23T02:45:21.441Z,4.00
2017-10-23T02:46:28.330Z,4.40
2017-10-23T02:47:35.234Z,4.20
2017-10-23T02:48:42.121Z,3.90
2017-10-23T02:49:48.972Z,4.20
2017-10-23T02:50:55.822Z,4.30
2017-10-23T02:52:02.752Z,4.60
2017-10-23T02:53:09.650Z,4.60
2017-10-23T02:54:16.662Z,4.10
2017-10-23T02:55:23.555Z,4.10
2017-10-23T02:56:30.471Z,4.60
2017-10-23T02:57:37.425Z,4.00
2017-10-23T02:58:44.308Z,4.40
2017-10-23T02:59:51.160Z,4.40
2017-10-23T03:00:58.077Z,4.20
2017-10-23T03:02:05.083Z,4.10
2017-10-23T03:03:12.134Z,4.80
2017-10-23T03:04:19.122Z,4.30
2017-10-23T03:05:26.145Z,4.00
2017-10-23T03:06:33.140Z,4.10
2017-10-23T03:07:40.285Z,4.10
2017-10-23T03:08:47.166Z,4.50
2017-10-23T03:09:54.226Z,4.50
2017-10-23T03:11:01.231Z,4.30
2017-10-23T03:12:08.254Z,4.10
2017-10-23T03:13:15.258Z,5.00
2017-10-23T03:14:22.219Z,4.40
2017-10-23T03:15:29.162Z,4.50
2017-10-23T03:16:36.208Z,4.60
2017-10-23T03:17:43.187Z,4.10
2017-10-23T03:18:50.198Z,4.60
2017-10-23T03:19:57.054Z,4.30
2017-10-23T03:21:03.975Z,4.80
2017-10-23T03:22:10.903Z,4.70
2017-10-23T03:23:17.834Z,4.90
2017-10-23T03:24:24.690Z,5.00
2017-10-23T03:25:31.583Z,4.90
2017-10-23T03:26:38.888Z,4.90
2017-10-23T03:27:45.366Z,4.50
2017-10-23T03:28:52.465Z,4.40
2017-10-23T03:29:59.623Z,4.80
2017-10-23T03:31:06.147Z,4.30
2017-10-23T03:32:13.250Z,5.10
2017-10-23T03:33:19.970Z,4.90
2017-10-23T03:34:27.066Z,4.80
2017-10-23T03:35:33.926Z,4.60
2017-10-23T03:36:40.811Z,4.40
2017-10-23T03:37:47.763Z,4.70
2017-10-23T03:38:54.615Z,4.90
2017-10-23T03:40:01.699Z,5.80
2017-10-23T03:41:08.935Z,4.50
2017-10-23T03:42:15.790Z,4.80
2017-10-23T03:43:22.645Z,4.80
2017-10-23T03:44:29.790Z,5.10
2017-10-23T03:45:36.878Z,4.60
2017-10-23T03:46:44.034Z,4.30
2017-10-23T03:47:51.177Z,4.60
2017-10-23T03:48:58.078Z,3.70
2017-10-23T03:50:05.147Z,5.20
2017-10-23T03:51:12.096Z,4.30
2017-10-23T03:52:19.022Z,4.40
2017-10-23T03:53:25.958Z,4.80
2017-10-23T03:54:32.954Z,4.70
2017-10-23T03:55:39.978Z,4.70
2017-10-23T03:56:46.848Z,5.60
2017-10-23T03:57:53.836Z,4.80
2017-10-23T03:59:00.766Z,4.60
2017-10-23T04:00:07.741Z,4.50
2017-10-23T04:01:14.774Z,4.70
2017-10-23T04:02:21.886Z,4.80
2017-10-23T04:03:28.815Z,5.00
2017-10-23T04:04:35.931Z,4.60
2017-10-23T04:05:42.354Z,4.00
2017-10-23T04:06:49.426Z,4.60
2017-10-23T04:07:56.372Z,4.40
2017-10-23T04:09:03.395Z,4.80
2017-10-23T04:10:10.327Z,5.50
2017-10-23T04:11:17.278Z,4.40
2017-10-23T04:12:24.270Z,5.10
2017-10-23T04:13:31.238Z,4.70
2017-10-23T04:14:38.253Z,4.80
2017-10-23T04:15:45.244Z,5.00
2017-10-23T04:16:52.215Z,4.70
2017-10-23T04:17:59.240Z,4.90
2017-10-23T04:19:06.263Z,4.90
2017-10-23T04:20:13.182Z,4.60
2017-10-23T04:21:20.189Z,4.70
2017-10-23T04:22:27.189Z,4.30
2017-10-23T04:23:34.181Z,4.10
2017-10-23T04:24:41.214Z,4.90
2017-10-23T04:25:48.283Z,4.90
2017-10-23T04:26:55.220Z,4.50
2017-10-23T04:28:02.088Z,4.60
2017-10-23T04:29:09.030Z,5.20
2017-10-23T04:30:16.097Z,5.00
2017-10-23T04:31:23.022Z,4.60
2017-10-23T04:32:29.963Z,4.40
2017-10-23T04:33:36.982Z,4.90
2017-10-23T04:34:43.898Z,4.50
2017-10-23T04:35:50.817Z,5.20
2017-10-23T04:36:57.714Z,4.60
2017-10-23T04:38:04.674Z,5.40
2017-10-23T04:39:11.643Z,5.30
2017-10-23T04:40:18.610Z,5.10
2017-10-23T04:41:25.571Z,5.00
2017-10-23T04:42:32.622Z,4.70
2017-10-23T04:43:39.645Z,5.10
2017-10-23T04:44:46.667Z,4.90
2017-10-23T04:45:53.498Z,5.00
2017-10-23T04:47:00.678Z,4.90
2017-10-23T04:48:07.638Z,4.40
2017-10-23T04:49:14.917Z,5.10
2017-10-23T04:50:21.530Z,5.30
2017-10-23T04:51:28.598Z,4.90
2017-10-23T04:52:35.575Z,5.30
2017-10-23T04:53:42.548Z,5.30
2017-10-23T04:54:49.598Z,5.10
2017-10-23T04:55:56.739Z,5.20
2017-10-23T04:57:03.777Z,5.50
2017-10-23T04:58:10.759Z,5.40
2017-10-23T04:59:17.637Z,5.20
2017-10-23T05:00:24.650Z,5.30
2017-10-23T05:01:31.582Z,5.00
2017-10-23T05:02:38.494Z,4.40
2017-10-23T05:03:45.425Z,5.20
2017-10-23T05:04:52.355Z,5.10
2017-10-23T05:05:59.323Z,5.30
2017-10-23T05:07:06.299Z,5.70
2017-10-23T05:08:13.438Z,5.00
2017-10-23T05:09:20.403Z,5.00
2017-10-23T05:10:27.311Z,5.10
2017-10-23T05:11:34.364Z,5.20
2017-10-23T05:12:41.294Z,5.00
2017-10-23T05:13:48.227Z,5.40
2017-10-23T05:14:55.176Z,5.10
2017-10-23T05:16:02.066Z,4.90
2017-10-23T05:17:09.114Z,5.00
2017-10-23T05:18:16.066Z,5.00
2017-10-23T05:19:23.103Z,5.40
2017-10-23T05:20:30.024Z,5.10
2017-10-23T05:21:37.342Z,5.00
2017-10-23T05:22:44.086Z,5.30
2017-10-23T05:23:50.490Z,5.60
2017-10-23T05:24:57.517Z,5.20
2017-10-23T05:26:04.175Z,5.40
2017-10-23T05:27:11.102Z,5.30
2017-10-23T05:28:18.039Z,5.60
2017-10-23T05:29:24.942Z,5.10
2017-10-23T05:30:31.889Z,5.60
2017-10-23T05:31:39.562Z,5.10
2017-10-23T05:32:45.955Z,5.30
2017-10-23T05:33:52.813Z,5.10
2017-10-23T05:34:59.837Z,4.70
2017-10-23T05:36:06.820Z,5.40
2017-10-23T05:37:13.726Z,5.20
2017-10-23T05:38:21.119Z,4.90
2017-10-23T05:39:27.699Z,5.00
2017-10-23T05:40:34.808Z,5.20
2017-10-23T05:41:42.520Z,5.30
2017-10-23T05:42:48.487Z,5.10
2017-10-23T05:43:55.386Z,5.30
2017-10-23T05:45:02.334Z,5.80
2017-10-23T05:46:09.284Z,5.00
2017-10-23T05:47:16.234Z,4.80
2017-10-23T05:48:23.110Z,5.20
2017-10-23T05:49:30.024Z,5.40
2017-10-23T05:50:36.991Z,5.50
2017-10-23T05:51:43.854Z,6.50
2017-10-23T05:52:50.754Z,5.70
2017-10-23T05:53:57.694Z,5.10
2017-10-23T05:55:04.633Z,5.60
2017-10-23T05:56:11.642Z,5.50
2017-10-23T05:57:18.540Z,5.20
2017-10-23T05:58:25.478Z,5.30
2017-10-23T05:59:32.548Z,5.20
2017-10-23T06:00:39.408Z,5.20
2017-10-23T06:01:46.354Z,5.10
2017-10-23T06:02:53.249Z,4.80
2017-10-23T06:04:00.830Z,4.80
2017-10-23T06:05:07.291Z,4.90
2017-10-23T06:06:14.238Z,5.10
2017-10-23T06:07:21.410Z,5.00
2017-10-23T06:08:27.819Z,5.20
2017-10-23T06:09:34.652Z,5.50
2017-10-23T06:10:41.591Z,4.90
2017-10-23T06:11:48.518Z,5.00
2017-10-23T06:12:55.374Z,5.20
2017-10-23T06:14:02.227Z,4.90
2017-10-23T06:15:09.228Z,5.40
2017-10-23T06:16:16.167Z,5.60
2017-10-23T06:17:23.126Z,5.20
2017-10-23T06:18:30.409Z,8.60
2017-10-23T06:19:36.819Z,8.60
2017-10-23T06:20:43.706Z,9.20
2017-10-23T06:21:50.602Z,9.20
2017-10-23T06:22:57.600Z,7.00
2017-10-23T06:24:04.491Z,5.40
2017-10-23T06:25:11.500Z,5.30
2017-10-23T06:26:18.517Z,5.20
2017-10-23T06:27:25.463Z,5.00
2017-10-23T06:28:32.402Z,5.60
2017-10-23T06:29:39.521Z,5.20
2017-10-23T06:30:46.143Z,4.90
2017-10-23T06:31:53.054Z,5.20
2017-10-23T06:32:59.953Z,5.20
2017-10-23T06:34:06.890Z,4.80
2017-10-23T06:35:13.862Z,5.00
2017-10-23T06:36:20.771Z,4.90
2017-10-23T06:37:27.802Z,5.10
2017-10-23T06:38:34.848Z,5.20
2017-10-23T06:39:41.786Z,5.10
2017-10-23T06:40:48.685Z,4.90
2017-10-23T06:41:55.597Z,4.70
2017-10-23T06:43:02.426Z,4.80
2017-10-23T06:44:09.422Z,5.30
2017-10-23T06:45:16.340Z,4.90
2017-10-23T06:46:23.389Z,5.50
2017-10-23T06:47:30.327Z,5.20
2017-10-23T06:48:37.334Z,4.70
2017-10-23T06:49:44.314Z,5.20
2017-10-23T06:50:51.338Z,5.00
2017-10-23T06:51:58.418Z,5.50
2017-10-23T06:53:05.141Z,4.70
2017-10-23T06:54:12.258Z,5.00
2017-10-23T06:55:19.351Z,4.50
2017-10-23T06:56:27.351Z,4.50
2017-10-23T06:57:33.554Z,4.80
2017-10-23T06:58:40.931Z,5.30
2017-10-23T06:59:47.360Z,4.70
2017-10-23T07:00:54.612Z,4.60
2017-10-23T07:02:01.399Z,4.30
2017-10-23T07:03:08.724Z,4.70
2017-10-23T07:04:15.457Z,5.00
2017-10-23T07:05:22.797Z,3.80
2017-10-23T07:06:29.198Z,4.40
2017-10-23T07:07:36.210Z,4.60
2017-10-23T07:08:43.045Z,4.40
2017-10-23T07:09:50.043Z,4.50
2017-10-23T07:10:56.981Z,3.90
2017-10-23T07:12:03.953Z,4.10
2017-10-23T07:13:10.958Z,4.40
2017-10-23T07:14:17.937Z,4.40
2017-10-23T07:15:25.245Z,3.90
2017-10-23T07:16:31.829Z,4.00
2017-10-23T07:17:38.835Z,4.40
2017-10-23T07:18:46.034Z,4.90
2017-10-23T07:19:53.029Z,4.40
2017-10-23T07:21:00.031Z,4.50
2017-10-23T07:22:06.977Z,4.40
2017-10-23T07:23:13.968Z,4.40
2017-10-23T07:24:20.855Z,4.30
2017-10-23T07:25:27.870Z,4.30
2017-10-23T07:26:34.763Z,4.20
2017-10-23T07:27:41.734Z,4.40
2017-10-23T07:28:48.758Z,4.00
2017-10-23T07:29:55.667Z,4.10
2017-10-23T07:31:02.536Z,4.20
2017-10-23T07:32:09.546Z,3.70
2017-10-23T07:33:16.497Z,4.40
2017-10-23T07:34:23.418Z,4.50
2017-10-23T07:35:30.414Z,4.40
2017-10-23T07:36:37.275Z,4.50
2017-10-23T07:37:44.539Z,4.60
2017-10-23T07:38:50.957Z,4.30
2017-10-23T07:39:57.932Z,3.80
2017-10-23T07:41:04.858Z,4.20
2017-10-23T07:42:11.763Z,4.20
2017-10-23T07:43:18.799Z,4.10
2017-10-23T07:44:25.970Z,3.80
2017-10-23T07:45:32.918Z,3.90
2017-10-23T07:46:39.564Z,3.90
2017-10-23T07:47:46.456Z,4.20
2017-10-23T07:48:53.485Z,4.00
2017-10-23T07:50:00.102Z,4.00
2017-10-23T07:51:07.078Z,4.20
2017-10-23T07:52:14.176Z,3.50
2017-10-23T07:53:21.029Z,4.00
2017-10-23T07:54:31.422Z,3.70
2017-10-23T07:55:34.855Z,4.00
2017-10-23T07:56:41.895Z,4.00
2017-10-23T07:57:48.838Z,3.80
2017-10-23T07:58:55.857Z,3.90
2017-10-23T08:00:02.749Z,4.10
2017-10-23T08:01:09.698Z,4.80
2017-10-23T08:02:16.644Z,4.50
2017-10-23T08:03:23.629Z,4.50
2017-10-23T08:04:30.827Z,4.30
2017-10-23T08:05:38.345Z,4.30
2017-10-23T08:06:44.062Z,3.80
2017-10-23T08:07:50.999Z,3.60
2017-10-23T08:08:58.279Z,3.90
2017-10-23T08:10:04.718Z,4.00
2017-10-23T08:11:11.715Z,4.10
2017-10-23T08:12:18.571Z,3.40
2017-10-23T08:13:25.588Z,3.70
2017-10-23T08:14:32.595Z,3.40
2017-10-23T08:15:39.506Z,4.40
2017-10-23T08:16:46.457Z,3.70
2017-10-23T08:17:53.302Z,4.70
2017-10-23T08:19:00.202Z,3.90
2017-10-23T08:20:07.095Z,3.60
2017-10-23T08:21:14.025Z,3.90
2017-10-23T08:22:21.090Z,3.30
2017-10-23T08:23:28.176Z,3.90
2017-10-23T08:24:35.111Z,3.90
2017-10-23T08:25:42.428Z,3.80
2017-10-23T08:26:49.078Z,3.80
2017-10-23T08:27:55.983Z,3.60
2017-10-23T08:29:02.884Z,3.90
2017-10-23T08:30:09.779Z,3.80
2017-10-23T08:31:16.662Z,3.40
2017-10-23T08:32:24.695Z,3.90
2017-10-23T08:33:30.411Z,3.30
2017-10-23T08:34:37.277Z,3.80
2017-10-23T08:35:44.174Z,3.80
2017-10-23T08:36:51.011Z,3.20
2017-10-23T08:37:58.032Z,3.70
2017-10-23T08:40:11.720Z,3.80
2017-10-23T08:41:18.682Z,3.80
2017-10-23T08:42:25.571Z,3.50
2017-10-23T08:43:32.434Z,3.50
2017-10-23T08:44:39.338Z,3.30
2017-10-23T08:45:46.210Z,3.40
2017-10-23T08:46:53.111Z,3.40
2017-10-23T08:48:00.030Z,3.10
2017-10-23T08:49:07.009Z,4.10
2017-10-23T08:50:14.691Z,4.00
2017-10-23T08:51:20.903Z,3.60
2017-10-23T08:52:27.883Z,3.70
2017-10-23T08:53:34.982Z,3.60
2017-10-23T08:54:41.597Z,3.50
2017-10-23T08:55:48.547Z,3.60
2017-10-23T08:56:55.558Z,3.80
2017-10-23T08:58:02.519Z,4.10
2017-10-23T08:59:09.453Z,4.40
2017-10-23T09:00:16.426Z,4.20
2017-10-23T09:01:23.384Z,4.30
2017-10-23T09:02:30.574Z,3.30
2017-10-23T09:03:37.262Z,4.00
2017-10-23T09:04:44.262Z,3.80
2017-10-23T09:05:51.401Z,3.50
2017-10-23T09:06:58.501Z,3.40
2017-10-23T09:08:05.693Z,3.80
2017-10-23T09:09:12.418Z,4.00
2017-10-23T09:10:19.147Z,4.10
2017-10-23T09:11:26.103Z,3.60
2017-10-23T09:12:33.115Z,4.10
2017-10-23T09:13:39.998Z,4.30
2017-10-23T09:14:46.873Z,3.70
2017-10-23T09:15:53.690Z,3.80
2017-10-23T09:17:00.626Z,4.00
2017-10-23T09:18:07.742Z,3.70
2017-10-23T09:19:14.665Z,3.80
2017-10-23T09:20:21.802Z,3.90
2017-10-23T09:21:28.644Z,4.20
2017-10-23T09:22:35.770Z,4.40
2017-10-23T09:23:43.175Z,3.80
2017-10-23T09:24:49.306Z,4.00
2017-10-23T09:25:56.198Z,4.10
2017-10-23T09:27:06.711Z,3.60
2017-10-23T09:28:10.123Z,4.30
2017-10-23T09:29:17.075Z,3.90
2017-10-23T09:30:24.150Z,4.20
2017-10-23T09:31:31.089Z,4.10
2017-10-23T09:32:38.001Z,3.70
2017-10-23T09:33:44.948Z,4.10
2017-10-23T09:34:51.867Z,4.10
2017-10-23T09:35:58.752Z,4.10
2017-10-23T09:37:05.786Z,4.10
2017-10-23T09:38:12.701Z,4.20
2017-10-23T09:39:19.585Z,3.80
2017-10-23T09:40:26.438Z,4.30
2017-10-23T09:41:33.558Z,3.60
2017-10-23T09:42:40.016Z,3.70
2017-10-23T09:43:47.445Z,3.80
2017-10-23T09:44:53.954Z,3.90
2017-10-23T09:46:01.155Z,3.40
2017-10-23T09:47:08.154Z,4.00
2017-10-23T09:48:15.283Z,3.90
2017-10-23T09:49:22.282Z,3.60
2017-10-23T09:50:28.660Z,3.70
2017-10-23T09:51:35.575Z,4.00
2017-10-23T09:52:42.470Z,3.60
2017-10-23T09:53:49.339Z,4.10
2017-10-23T09:54:56.468Z,4.20
2017-10-23T09:56:03.381Z,4.10
2017-10-23T09:57:10.122Z,3.80
2017-10-23T09:58:17.090Z,3.60
2017-10-23T09:59:24.452Z,3.50
2017-10-23T10:00:30.838Z,3.60
2017-10-23T10:01:37.678Z,4.10
2017-10-23T10:02:50.145Z,3.60
2017-10-23T10:03:51.626Z,4.00
2017-10-23T10:04:58.564Z,3.40
2017-10-23T10:06:05.404Z,3.50
2017-10-23T10:07:12.243Z,3.60
2017-10-23T10:08:19.122Z,4.00
2017-10-23T10:09:26.042Z,3.70
2017-10-23T10:10:34.491Z,4.10
2017-10-23T10:11:39.757Z,3.60
2017-10-23T10:12:46.723Z,3.60
2017-10-23T10:13:53.626Z,3.30
2017-10-23T10:15:00.540Z,3.40
2017-10-23T10:16:07.426Z,3.60
2017-10-23T10:17:14.342Z,3.90
2017-10-23T10:18:21.375Z,3.80
2017-10-23T10:19:28.330Z,3.70
2017-10-23T10:20:35.274Z,3.60
2017-10-23T10:21:42.238Z,4.30
2017-10-23T10:22:49.146Z,3.90
2017-10-23T10:23:56.050Z,4.00
2017-10-23T10:25:03.150Z,3.90
2017-10-23T10:26:09.702Z,4.60
2017-10-23T10:27:16.506Z,4.00
2017-10-23T10:28:23.325Z,3.90
2017-10-23T10:29:30.214Z,4.30
2017-10-23T10:30:37.124Z,4.00
2017-10-23T10:31:44.006Z,4.00
2017-10-23T10:32:50.803Z,3.90
2017-10-23T10:33:57.690Z,4.00
2017-10-23T10:51:48.421Z,3.70
2017-10-23T10:52:55.246Z,4.40
2017-10-23T10:54:02.057Z,3.70
2017-10-23T10:55:09.056Z,3.50
2017-10-23T10:56:15.910Z,3.40
2017-10-23T10:57:22.687Z,3.90
2017-10-23T10:58:29.480Z,3.50
2017-10-23T10:59:36.550Z,3.40
2017-10-23T11:00:43.422Z,3.50
2017-10-23T11:01:50.450Z,3.30
2017-10-23T11:02:57.377Z,3.20
2017-10-23T11:04:04.213Z,2.90
2017-10-23T11:05:11.128Z,3.20
2017-10-23T11:06:17.958Z,3.10
2017-10-23T11:07:24.765Z,3.20
2017-10-23T11:08:31.559Z,3.40
2017-10-23T11:09:38.369Z,3.50
2017-10-23T11:10:45.145Z,3.20
2017-10-23T11:11:51.902Z,3.60
2017-10-23T11:12:58.686Z,3.30
2017-10-23T11:14:05.497Z,3.70
2017-10-23T11:15:12.272Z,3.50
2017-10-23T11:16:19.056Z,3.70
2017-10-23T11:17:25.898Z,3.90
2017-10-23T11:18:32.735Z,3.90
2017-10-23T11:19:39.596Z,3.70
2017-10-23T11:20:46.465Z,3.80
2017-10-23T11:21:53.262Z,4.20
2017-10-23T11:23:00.045Z,3.90
2017-10-23T11:24:06.824Z,3.70
2017-10-23T11:25:13.618Z,4.00
2017-10-23T11:26:20.393Z,3.60
2017-10-23T11:27:27.179Z,3.80
2017-10-23T11:28:33.982Z,3.80
2017-10-23T11:29:40.762Z,3.60
2017-10-23T11:30:47.538Z,3.80
2017-10-23T11:31:54.329Z,3.50
2017-10-23T11:33:01.112Z,3.70
2017-10-23T11:34:07.925Z,3.60
2017-10-23T11:35:14.708Z,3.60
2017-10-23T11:36:21.517Z,4.10
2017-10-23T11:36:59.162Z,4.10
2017-10-23T11:38:05.992Z,3.60
2017-10-23T11:39:12.785Z,4.10
2017-10-23T11:40:19.553Z,3.70
2017-10-23T11:41:26.320Z,3.60
2017-10-23T11:42:33.134Z,3.40
2017-10-23T11:43:39.894Z,3.90
2017-10-23T11:44:46.656Z,3.60
2017-10-23T11:45:53.512Z,3.30
2017-10-23T11:47:00.268Z,3.70
2017-10-23T11:48:07.141Z,3.50
2017-10-23T11:49:13.930Z,4.10
2017-10-23T11:50:20.737Z,4.20
2017-10-23T11:51:27.664Z,3.80
2017-10-23T11:52:34.473Z,3.70
2017-10-23T11:53:41.212Z,3.60
2017-10-23T11:54:47.976Z,3.70
2017-10-23T11:55:54.766Z,3.60
2017-10-23T11:57:01.526Z,3.60
2017-10-23T11:58:08.375Z,3.60
2017-10-23T11:59:15.113Z,4.10
2017-10-23T12:00:21.910Z,4.30
2017-10-23T12:01:28.738Z,6.50
2017-10-23T12:02:35.520Z,5.90
2017-10-23T12:03:42.267Z,6.20
2017-10-23T12:04:49.080Z,7.30
2017-10-23T12:05:55.922Z,5.50
2017-10-23T12:07:02.684Z,3.90
2017-10-23T12:08:09.466Z,3.70
2017-10-23T12:09:16.312Z,3.90
2017-10-23T12:10:23.060Z,3.90
2017-10-23T12:11:29.834Z,3.70
2017-10-23T12:12:36.600Z,3.60
2017-10-23T12:13:43.406Z,3.70
2017-10-23T12:14:50.231Z,4.40
2017-10-23T12:15:57.076Z,4.40
2017-10-23T12:17:04.373Z,4.00
2017-10-23T12:18:10.680Z,3.90
2017-10-23T12:19:17.496Z,3.70
2017-10-23T12:20:24.570Z,4.10
2017-10-23T12:21:31.510Z,3.90
2017-10-23T12:22:38.429Z,3.90
2017-10-23T12:23:45.348Z,4.60
2017-10-23T12:24:52.241Z,6.60
2017-10-23T12:25:59.086Z,6.90
2017-10-23T12:27:06.007Z,6.40
2017-10-23T12:28:12.946Z,7.40
2017-10-23T12:29:19.820Z,5.00
2017-10-23T12:30:26.629Z,3.90
2017-10-23T12:31:33.448Z,4.40
2017-10-23T12:32:40.252Z,3.90
2017-10-23T12:33:47.019Z,3.90
2017-10-23T12:34:53.828Z,4.20
2017-10-23T12:36:00.609Z,3.90
2017-10-23T12:37:07.411Z,4.30
2017-10-23T12:38:14.245Z,4.20
2017-10-23T12:39:21.168Z,4.20
2017-10-23T12:40:28.014Z,3.70
2017-10-23T12:41:34.945Z,3.90
2017-10-23T12:42:41.911Z,3.70
2017-10-23T12:43:48.850Z,3.60
2017-10-23T12:44:55.612Z,3.60
2017-10-23T12:46:02.433Z,4.30
2017-10-23T12:47:09.224Z,4.20
2017-10-23T12:48:15.964Z,3.80
2017-10-23T12:49:22.994Z,3.70
2017-10-23T12:50:29.793Z,4.50
2017-10-23T12:51:36.590Z,5.50
2017-10-23T12:52:43.401Z,5.40
2017-10-23T12:53:50.237Z,5.30
2017-10-23T12:54:57.015Z,5.70
2017-10-23T12:56:03.774Z,7.20
2017-10-23T12:57:10.544Z,6.70
2017-10-23T12:58:17.379Z,6.60
2017-10-23T12:59:24.257Z,6.40
2017-10-23T13:00:31.057Z,7.20
2017-10-23T13:01:37.789Z,7.00
2017-10-23T13:02:44.545Z,6.30
2017-10-23T13:03:51.372Z,6.90
2017-10-23T13:04:58.204Z,6.50
2017-10-23T13:06:04.964Z,3.40
2017-10-23T13:07:11.811Z,3.60
2017-10-23T13:08:18.568Z,3.50
2017-10-23T13:09:25.329Z,3.40
2017-10-23T13:10:32.242Z,3.60
2017-10-23T13:11:39.098Z,3.40
2017-10-23T13:12:46.005Z,3.70
2017-10-23T13:13:52.949Z,3.30
2017-10-23T13:14:59.772Z,3.60
2017-10-23T13:16:06.716Z,3.40
2017-10-23T13:17:13.563Z,3.40
2017-10-23T13:18:20.698Z,3.20
2017-10-23T13:19:27.492Z,3.50
2017-10-23T13:20:34.293Z,3.30
2017-10-23T13:21:41.252Z,3.30
2017-10-23T13:22:48.043Z,3.10
2017-10-23T13:23:54.849Z,3.10
2017-10-23T13:25:01.625Z,2.80
2017-10-23T13:26:08.475Z,3.50
2017-10-23T13:27:15.540Z,2.90
2017-10-23T13:28:22.368Z,2.90
2017-10-23T13:29:29.425Z,2.90
2017-10-23T13:30:36.141Z,3.00
2017-10-23T13:31:43.052Z,2.80
2017-10-23T13:32:49.861Z,2.80
2017-10-23T13:33:56.681Z,3.00
2017-10-23T13:35:03.485Z,3.80
2017-10-23T13:36:10.247Z,3.20
2017-10-23T13:37:17.055Z,3.30
2017-10-23T13:38:23.932Z,3.00
2017-10-23T13:39:30.809Z,3.20
2017-10-23T13:40:37.617Z,3.10
2017-10-23T13:41:44.385Z,3.00
2017-10-23T13:42:51.172Z,2.90
2017-10-23T13:43:58.114Z,3.00
2017-10-23T13:45:04.946Z,2.90
2017-10-23T13:46:11.769Z,2.90
2017-10-23T13:47:18.753Z,3.40
2017-10-23T13:48:25.745Z,3.00
2017-10-23T13:49:32.723Z,3.30
2017-10-23T13:50:39.553Z,3.50
2017-10-23T13:51:46.340Z,3.30
2017-10-23T13:52:53.230Z,3.00
2017-10-23T13:54:00.052Z,2.80
2017-10-23T13:55:06.850Z,3.40
2017-10-23T13:56:13.635Z,6.40
2017-10-23T13:57:20.480Z,6.30
2017-10-23T13:58:27.324Z,6.30
2017-10-23T13:59:34.207Z,6.70
2017-10-23T14:00:41.227Z,4.60
2017-10-23T14:01:48.179Z,2.80
2017-10-23T14:02:55.101Z,3.30
2017-10-23T14:04:01.962Z,4.10
2017-10-23T14:05:08.720Z,3.20
2017-10-23T14:06:15.556Z,3.30
2017-10-23T14:07:22.494Z,3.50
2017-10-23T14:08:29.416Z,3.30
2017-10-23T14:09:36.995Z,3.70
2017-10-23T14:10:42.992Z,3.80
2017-10-23T14:11:49.979Z,4.00
2017-10-23T14:12:56.798Z,4.00
2017-10-23T14:14:03.663Z,3.70
2017-10-23T14:15:10.522Z,3.70
2017-10-23T14:16:17.330Z,4.00
2017-10-23T14:17:24.160Z,3.90
2017-10-23T14:18:31.007Z,3.70
2017-10-23T14:19:37.865Z,3.50
2017-10-23T14:20:44.837Z,3.40
2017-10-23T14:21:51.795Z,3.50
2017-10-23T14:22:58.707Z,3.60
2017-10-23T14:24:05.705Z,4.00
2017-10-23T14:25:12.602Z,4.00
2017-10-23T14:26:19.474Z,3.60
2017-10-23T14:27:26.389Z,3.70
2017-10-23T14:28:33.304Z,3.40
2017-10-23T14:29:40.272Z,3.50
2017-10-23T14:30:47.208Z,3.60
2017-10-23T14:31:54.261Z,3.70
2017-10-23T14:33:01.284Z,3.60
2017-10-23T14:34:08.129Z,3.40
2017-10-23T14:35:14.992Z,3.50
2017-10-23T14:36:21.907Z,3.60
2017-10-23T14:37:28.830Z,3.50
2017-10-23T14:38:35.778Z,3.80
2017-10-23T14:39:42.664Z,3.60
2017-10-23T14:40:49.522Z,4.40
2017-10-23T14:41:56.372Z,3.70
2017-10-23T14:43:03.345Z,3.60
2017-10-23T14:44:10.407Z,3.60
2017-10-23T14:45:17.503Z,3.80
2017-10-23T14:46:24.505Z,3.70
2017-10-23T14:47:31.455Z,3.20
2017-10-23T14:48:38.252Z,3.30
2017-10-23T14:49:45.186Z,4.30
2017-10-23T14:50:52.056Z,3.90
2017-10-23T14:51:58.920Z,3.40
2017-10-23T14:53:05.813Z,3.90
2017-10-23T14:54:12.757Z,3.50
2017-10-23T14:55:19.670Z,3.50
2017-10-23T14:56:26.623Z,3.70
2017-10-23T14:57:33.572Z,3.90
2017-10-23T14:58:40.545Z,3.70
2017-10-23T14:59:47.436Z,3.90
2017-10-23T15:00:54.300Z,3.60
2017-10-23T15:02:01.287Z,3.90
2017-10-23T15:03:08.177Z,3.70
2017-10-23T15:04:15.053Z,4.00
2017-10-23T15:05:21.819Z,4.10
2017-10-23T15:06:28.617Z,3.60
2017-10-23T15:07:35.607Z,3.70